23.9°F
Current conditions from King Hill
Updated every 5 minutes
 
  Thursday November 27, 2014

Station Historical Data
Daily Summary for September 27, 2011 Units:  Metric    English   Both
« Previous Day
Next Day »
Daily Weekly Monthly Yearly Custom
  High: Low: Average:
Temperature: 26.5 °C 8.5 °C 16.7 °C
Dew Point: 18.2 °C 7.9 °C 13.2 °C
Humidity: 97% 50% 82%
Wind Speed: 6.4km/h 0km/h 2.6km/h
Wind Gust: 11.3km/h - -
Wind- - SW
Pressure: 1015.1 hPa 1012.8 hPa -
Precipitation: 0 mm    
Historical Graphs
 
 
Tabular Data for September 27, 2011
Time Temperature Dew Point Pressure Wind Wind Speed Wind Gust Humidity Daily Rainfall
00:00 10.7 °C 9.9 °C 1014.8 hPa Calm     95% 0 mm
00:05 10.6 °C 9.8 °C 1014.8 hPa Calm     95% 0 mm
00:10 10.6 °C 9.8 °C 1014.8 hPa Calm     95% 0 mm
00:15 10.6 °C 9.8 °C 1014.8 hPa Calm     95% 0 mm
00:20 10.7 °C 9.9 °C 1014.8 hPa Calm     95% 0 mm
00:25 10.5 °C 9.7 °C 1014.8 hPa Calm     95% 0 mm
00:30 10.7 °C 9.9 °C 1014.8 hPa Calm     95% 0 mm
00:35 10.8 °C 10 °C 1014.8 hPa Calm     95% 0 mm
00:40 10.8 °C 10 °C 1014.4 hPa Calm     95% 0 mm
00:45 10.8 °C 10 °C 1014.4 hPa Calm     95% 0 mm
00:55 10.6 °C 9.8 °C 1014.4 hPa Calm     95% 0 mm
01:00 10.6 °C 9.8 °C 1014.4 hPa Calm     95% 0 mm
01:05 10.5 °C 9.7 °C 1014.4 hPa Calm     95% 0 mm
01:10 10.3 °C 9.5 °C 1014.4 hPa Calm     95% 0 mm
01:15 10.4 °C 9.6 °C 1014.4 hPa Calm     95% 0 mm
01:20 10.5 °C 9.7 °C 1014.4 hPa Calm     95% 0 mm
01:25 10.4 °C 9.7 °C 1014.4 hPa Calm     95% 0 mm
01:30 10.3 °C 9.6 °C 1014.4 hPa Calm     95% 0 mm
01:35 10.2 °C 9.4 °C 1014.8 hPa Calm     95% 0 mm
01:45 10 °C 9.2 °C 1014.8 hPa Calm     95% 0 mm
01:50 9.8 °C 9.1 °C 1014.4 hPa Calm     95% 0 mm
01:55 9.8 °C 9.1 °C 1014.4 hPa Calm     95% 0 mm
02:05 9.8 °C 9.1 °C 1014.4 hPa Calm     95% 0 mm
02:10 9.9 °C 9.1 °C 1014.4 hPa Calm     95% 0 mm
02:15 9.9 °C 9.1 °C 1014.4 hPa Calm   1.6 km/h 95% 0 mm
02:20 9.8 °C 9.1 °C 1014.4 hPa Calm   3.2 km/h 95% 0 mm
02:25 10.1 °C 9.3 °C 1014.4 hPa Calm   3.2 km/h 95% 0 mm
02:35 10.4 °C 9.8 °C 1014.4 hPa Calm     96% 0 mm
02:45 10.1 °C 9.3 °C 1014.1 hPa Calm     95% 0 mm
02:50 10 °C 9.2 °C 1014.1 hPa Calm   1.6 km/h 95% 0 mm
02:55 9.9 °C 9.2 °C 1014.1 hPa Calm   1.6 km/h 95% 0 mm
03:00 10 °C 9.2 °C 1014.1 hPa Calm   1.6 km/h 95% 0 mm
03:05 10.1 °C 9.4 °C 1014.1 hPa Calm   3.2 km/h 96% 0 mm
03:10 9.9 °C 9.1 °C 1014.1 hPa Calm   3.2 km/h 95% 0 mm
03:15 9.8 °C 9.2 °C 1014.1 hPa Calm   3.2 km/h 96% 0 mm
03:20 9.9 °C 9.3 °C 1014.1 hPa Calm   3.2 km/h 96% 0 mm
03:30 9.6 °C 8.8 °C 1014.4 hPa Calm     95% 0 mm
03:35 9.4 °C 8.6 °C 1014.4 hPa Calm     95% 0 mm
03:40 9.3 °C 8.5 °C 1014.4 hPa Calm     95% 0 mm
03:45 9.3 °C 8.5 °C 1014.4 hPa Calm     95% 0 mm
03:50 9.3 °C 8.5 °C 1014.4 hPa Calm     95% 0 mm
03:55 9.2 °C 8.4 °C 1014.4 hPa Calm     95% 0 mm
04:00 9.2 °C 8.6 °C 1014.4 hPa Calm     96% 0 mm
04:05 9.2 °C 8.6 °C 1014.4 hPa Calm     96% 0 mm
04:10 9.2 °C 8.6 °C 1014.4 hPa Calm     96% 0 mm
04:15 9.2 °C 8.6 °C 1014.4 hPa Calm     96% 0 mm
04:20 9.2 °C 8.6 °C 1014.4 hPa Calm     96% 0 mm
04:25 8.9 °C 8.2 °C 1014.4 hPa Calm     95% 0 mm
04:30 8.8 °C 8 °C 1014.4 hPa Calm     95% 0 mm
04:35 8.7 °C 7.9 °C 1014.1 hPa Calm     95% 0 mm
04:40 8.8 °C 8.2 °C 1014.1 hPa Calm     96% 0 mm
04:50 8.7 °C 7.9 °C 1014.1 hPa Calm     95% 0 mm
05:00 8.7 °C 7.9 °C 1014.4 hPa Calm     95% 0 mm
05:05 8.8 °C 8.2 °C 1014.4 hPa Calm     96% 0 mm
05:10 8.9 °C 8.3 °C 1014.4 hPa Calm     96% 0 mm
05:20 8.8 °C 8 °C 1014.4 hPa Calm     95% 0 mm
05:25 8.5 °C 7.9 °C 1014.8 hPa Calm     96% 0 mm
05:30 8.5 °C 7.9 °C 1014.8 hPa Calm     96% 0 mm
05:40 8.7 °C 8.1 °C 1014.4 hPa Calm     96% 0 mm
05:45 8.9 °C 8.3 °C 1014.4 hPa Calm     96% 0 mm
05:50 8.9 °C 8.3 °C 1014.4 hPa Calm     96% 0 mm
05:55 8.9 °C 8.3 °C 1014.4 hPa Calm     96% 0 mm
06:00 8.8 °C 8.2 °C 1014.4 hPa Calm     96% 0 mm
06:10 8.7 °C 8.1 °C 1014.4 hPa Calm     96% 0 mm
06:15 8.6 °C 8 °C 1014.4 hPa Calm     96% 0 mm
06:20 8.6 °C 7.9 °C 1014.4 hPa Calm     96% 0 mm
06:25 8.6 °C 8 °C 1014.4 hPa Calm     96% 0 mm
06:30 8.9 °C 8.3 °C 1014.4 hPa Calm     96% 0 mm
06:40 8.8 °C 8.2 °C 1014.8 hPa Calm     96% 0 mm
06:45 8.8 °C 8.2 °C 1014.8 hPa Calm     96% 0 mm
06:50 8.6 °C 8 °C 1014.8 hPa Calm     96% 0 mm
06:55 8.6 °C 7.9 °C 1014.8 hPa Calm     96% 0 mm
07:00 8.7 °C 8.1 °C 1014.8 hPa Calm     96% 0 mm
07:05 8.7 °C 8.1 °C 1015.1 hPa Calm     96% 0 mm
07:10 8.7 °C 8.1 °C 1015.1 hPa Calm     96% 0 mm
07:15 8.7 °C 8.1 °C 1015.1 hPa Calm     96% 0 mm
07:20 8.9 °C 8.3 °C 1015.1 hPa Calm     96% 0 mm
07:25 9.2 °C 8.6 °C 1015.1 hPa Calm     96% 0 mm
07:30 9.3 °C 8.7 °C 1015.1 hPa Calm     96% 0 mm
07:35 9.3 °C 8.7 °C 1015.1 hPa Calm   1.6 km/h 96% 0 mm
07:40 9.6 °C 8.9 °C 1015.1 hPa Calm   6.4 km/h 96% 0 mm
07:45 9.8 °C 9.2 °C 1015.1 hPa Calm   6.4 km/h 96% 0 mm
07:50 9.9 °C 9.3 °C 1015.1 hPa Calm   3.2 km/h 96% 0 mm
07:55 9.9 °C 9.3 °C 1015.1 hPa Calm   1.6 km/h 96% 0 mm
08:00 9.9 °C 9.3 °C 1015.1 hPa Calm   1.6 km/h 96% 0 mm
08:05 10 °C 9.4 °C 1015.1 hPa Calm   1.6 km/h 96% 0 mm
08:10 10.1 °C 9.4 °C 1015.1 hPa Calm     96% 0 mm
08:15 10.2 °C 9.6 °C 1015.1 hPa Calm     96% 0 mm
08:20 10.3 °C 9.7 °C 1015.1 hPa Calm     96% 0 mm
08:25 10.6 °C 10 °C 1015.1 hPa Calm     96% 0 mm
08:30 11.1 °C 10.4 °C 1015.1 hPa Calm     96% 0 mm
08:35 11.9 °C 11.3 °C 1015.1 hPa Calm     96% 0 mm
08:40 12.9 °C 12.4 °C 1014.8 hPa Calm     97% 0 mm
08:50 13.8 °C 13.4 °C 1014.8 hPa Calm   1.6 km/h 97% 0 mm
08:55 13.8 °C 13.3 °C 1014.8 hPa Calm   3.2 km/h 97% 0 mm
09:00 13.7 °C 13.3 °C 1014.8 hPa Calm   3.2 km/h 97% 0 mm
09:05 13.8 °C 13.3 °C 1015.1 hPa Calm   3.2 km/h 97% 0 mm
09:10 13.9 °C 13.4 °C 1015.1 hPa Calm   1.6 km/h 97% 0 mm
09:15 14 °C 13.6 °C 1014.8 hPa Calm   4.8 km/h 97% 0 mm
09:20 14.5 °C 14.1 °C 1014.8 hPa Calm   4.8 km/h 97% 0 mm
09:25 14.9 °C 14.5 °C 1014.8 hPa Calm     97% 0 mm
09:30 15.3 °C 14.8 °C 1014.8 hPa Calm     97% 0 mm
09:35 15.8 °C 15.2 °C 1014.8 hPa Calm     96% 0 mm
09:40 16.3 °C 15.2 °C 1014.8 hPa Calm     93% 0 mm
09:45 16.8 °C 14.9 °C 1015.1 hPa Calm     89% 0 mm
09:50 17.2 °C 14.8 °C 1015.1 hPa Calm   1.6 km/h 86% 0 mm
09:55 17.7 °C 15.2 °C 1015.1 hPa Calm   1.6 km/h 85% 0 mm
10:00 18.3 °C 15.6 °C 1015.1 hPa Calm     84% 0 mm
10:05 18.9 °C 15.6 °C 1015.1 hPa Calm   3.2 km/h 81% 0 mm
10:10 19.3 °C 15.6 °C 1015.1 hPa Calm   3.2 km/h 79% 0 mm
10:15 19.7 °C 16.2 °C 1015.1 hPa Calm     80% 0 mm
10:20 20.4 °C 16.6 °C 1015.1 hPa Calm     79% 0 mm
10:25 20.9 °C 16.9 °C 1015.1 hPa NE 1.6 km/h 4.8 km/h 78% 0 mm
10:30 21 °C 16 °C 1015.1 hPa Calm   4.8 km/h 73% 0 mm
10:35 21.1 °C 16.1 °C 1015.1 hPa Calm   3.2 km/h 73% 0 mm
10:45 21.6 °C 15.9 °C 1015.1 hPa Calm   4.8 km/h 70% 0 mm
10:50 21.8 °C 15.4 °C 1015.1 hPa Calm   4.8 km/h 67% 0 mm
10:55 21.9 °C 15.7 °C 1015.1 hPa Calm   1.6 km/h 68% 0 mm
11:00 22 °C 15.6 °C 1015.1 hPa Calm   3.2 km/h 67% 0 mm
11:05 22.2 °C 15.1 °C 1015.1 hPa Calm   3.2 km/h 64% 0 mm
11:10 22.4 °C 14.5 °C 1015.1 hPa Calm   1.6 km/h 61% 0 mm
11:15 22.4 °C 15.9 °C 1015.1 hPa Calm   1.6 km/h 67% 0 mm
11:20 22.5 °C 13.8 °C 1015.1 hPa Calm   3.2 km/h 58% 0 mm
11:25 22.7 °C 15.3 °C 1015.1 hPa Calm   3.2 km/h 63% 0 mm
11:30 23 °C 14.3 °C 1015.1 hPa Calm   1.6 km/h 58% 0 mm
11:35 23.3 °C 15.6 °C 1015.1 hPa Calm   1.6 km/h 62% 0 mm
11:40 23.3 °C 15.2 °C 1015.1 hPa Calm   1.6 km/h 60% 0 mm
11:45 23.2 °C 15.1 °C 1015.1 hPa NNW 1.6 km/h 6.4 km/h 60% 0 mm
11:50 23.3 °C 15.6 °C 1015.1 hPa Calm   6.4 km/h 62% 0 mm
11:55 23.6 °C 16.3 °C 1015.1 hPa Calm   1.6 km/h 64% 0 mm
12:00 23.7 °C 15.8 °C 1015.1 hPa East 3.2 km/h 8 km/h 61% 0 mm
12:05 23.9 °C 16.5 °C 1014.8 hPa East 3.2 km/h 8 km/h 63% 0 mm
12:10 23.9 °C 15.7 °C 1014.8 hPa NNE 1.6 km/h 9.7 km/h 60% 0 mm
12:15 23.8 °C 15.6 °C 1014.8 hPa Calm   9.7 km/h 60% 0 mm
12:20 23.8 °C 15.3 °C 1014.8 hPa Calm   6.4 km/h 59% 0 mm
12:25 23.8 °C 15.6 °C 1014.8 hPa Calm   1.6 km/h 60% 0 mm
12:30 23.9 °C 14.9 °C 1014.8 hPa Calm   1.6 km/h 57% 0 mm
12:35 24.3 °C 15.5 °C 1014.8 hPa Calm   1.6 km/h 58% 0 mm
12:40 24.5 °C 14.9 °C 1014.8 hPa Calm   4.8 km/h 55% 0 mm
12:45 24.4 °C 14.3 °C 1014.8 hPa Calm   8 km/h 53% 0 mm
12:55 24.6 °C 14.9 °C 1014.4 hPa Calm   1.6 km/h 55% 0 mm
13:00 24.6 °C 15.3 °C 1014.4 hPa Calm   1.6 km/h 56% 0 mm
13:05 24.8 °C 14.9 °C 1014.4 hPa Calm   1.6 km/h 54% 0 mm
13:10 25.1 °C 16.5 °C 1014.4 hPa Calm   1.6 km/h 59% 0 mm
13:15 25.2 °C 15.3 °C 1014.4 hPa Calm   3.2 km/h 54% 0 mm
13:20 25.4 °C 15.7 °C 1014.4 hPa Calm   3.2 km/h 55% 0 mm
13:25 25.2 °C 14.9 °C 1014.4 hPa Calm   1.6 km/h 53% 0 mm
13:30 25.1 °C 13.9 °C 1014.4 hPa NW 1.6 km/h 6.4 km/h 50% 0 mm
13:35 25.3 °C 14.4 °C 1014.4 hPa Calm   6.4 km/h 51% 0 mm
13:45 25.4 °C 14.3 °C 1014.1 hPa Calm   4.8 km/h 50% 0 mm
13:50 25.6 °C 15.6 °C 1014.1 hPa West 4.8 km/h 8 km/h 54% 0 mm
13:55 25.5 °C 15.2 °C 1014.1 hPa WNW 6.4 km/h 11.3 km/h 53% 0 mm
14:00 25.4 °C 15.7 °C 1014.1 hPa Calm   11.3 km/h 55% 0 mm
14:05 25.4 °C 16.1 °C 1014.1 hPa Calm   8 km/h 56% 0 mm
14:10 25.6 °C 16.2 °C 1014.1 hPa Calm   6.4 km/h 56% 0 mm
14:15 25.7 °C 15.7 °C 1014.1 hPa NW 4.8 km/h 8 km/h 54% 0 mm
14:20 25.6 °C 16.4 °C 1014.1 hPa NW 1.6 km/h 8 km/h 57% 0 mm
14:30 25.9 °C 16.8 °C 1014.1 hPa NW 1.6 km/h 6.4 km/h 57% 0 mm
14:40 25.9 °C 15.9 °C 1014.1 hPa Calm   4.8 km/h 54% 0 mm
14:45 26.2 °C 16.2 °C 1013.8 hPa WNW 1.6 km/h 6.4 km/h 54% 0 mm
14:55 26.3 °C 16.6 °C 1013.8 hPa Calm   1.6 km/h 55% 0 mm
15:00 26.2 °C 15.3 °C 1013.8 hPa Calm   1.6 km/h 51% 0 mm
15:05 26.2 °C 15.9 °C 1013.8 hPa Calm   1.6 km/h 53% 0 mm
15:10 26.4 °C 15.2 °C 1013.8 hPa Calm   1.6 km/h 50% 0 mm
15:15 26.5 °C 16.4 °C 1013.8 hPa Calm   1.6 km/h 54% 0 mm
15:20 26.4 °C 16.4 °C 1013.4 hPa Calm   1.6 km/h 54% 0 mm
15:25 26.3 °C 16.8 °C 1013.8 hPa Calm   1.6 km/h 56% 0 mm
15:30 26.1 °C 15.4 °C 1013.8 hPa Calm   1.6 km/h 52% 0 mm
15:40 25.8 °C 16.9 °C 1013.4 hPa Calm   1.6 km/h 58% 0 mm
15:45 26.1 °C 16.9 °C 1013.4 hPa Calm   1.6 km/h 57% 0 mm
15:50 26.1 °C 16.6 °C 1013.4 hPa Calm   1.6 km/h 56% 0 mm
15:55 25.9 °C 17.1 °C 1013.4 hPa Calm   1.6 km/h 58% 0 mm
16:00 25.9 °C 16.2 °C 1013.4 hPa Calm   1.6 km/h 55% 0 mm
16:05 25.9 °C 16.8 °C 1013.4 hPa Calm   4.8 km/h 57% 0 mm
16:10 25.8 °C 15.8 °C 1013.4 hPa Calm   4.8 km/h 54% 0 mm
16:15 25.8 °C 16.6 °C 1013.1 hPa Calm   1.6 km/h 57% 0 mm
16:20 25.9 °C 15.7 °C 1013.1 hPa Calm   4.8 km/h 53% 0 mm
16:25 25.9 °C 17.3 °C 1013.1 hPa Calm   4.8 km/h 59% 0 mm
16:30 25.9 °C 15.9 °C 1013.1 hPa Calm   1.6 km/h 54% 0 mm
16:40 25.9 °C 17.3 °C 1013.1 hPa Calm   1.6 km/h 59% 0 mm
16:45 25.8 °C 17.5 °C 1013.1 hPa Calm   1.6 km/h 60% 0 mm
16:55 25.6 °C 17.2 °C 1013.1 hPa Calm   1.6 km/h 60% 0 mm
17:00 25.4 °C 17.8 °C 1013.1 hPa Calm   1.6 km/h 63% 0 mm
17:05 25.3 °C 18.2 °C 1013.1 hPa Calm   1.6 km/h 65% 0 mm
17:10 25 °C 17.2 °C 1013.1 hPa Calm   1.6 km/h 62% 0 mm
17:15 24.6 °C 17.8 °C 1013.1 hPa Calm   1.6 km/h 66% 0 mm
17:20 24.1 °C 17.6 °C 1013.1 hPa Calm   1.6 km/h 67% 0 mm
17:25 23.8 °C 17.8 °C 1013.1 hPa Calm   1.6 km/h 69% 0 mm
17:35 23.5 °C 17.7 °C 1012.8 hPa Calm     70% 0 mm
17:40 23.3 °C 17.6 °C 1012.8 hPa Calm     70% 0 mm
17:45 23.1 °C 17.3 °C 1012.8 hPa Calm     70% 0 mm
17:55 22.5 °C 17 °C 1013.1 hPa Calm     71% 0 mm
18:00 22.1 °C 16.8 °C 1013.1 hPa Calm     72% 0 mm
18:05 21.6 °C 16.6 °C 1013.1 hPa Calm     73% 0 mm
18:10 21.2 °C 16.6 °C 1013.1 hPa Calm     75% 0 mm
18:15 20.8 °C 16.4 °C 1013.1 hPa Calm     76% 0 mm
18:20 20.4 °C 16.5 °C 1013.1 hPa Calm     78% 0 mm
18:25 20.1 °C 16.3 °C 1013.1 hPa Calm     79% 0 mm
18:30 19.7 °C 16.1 °C 1013.4 hPa Calm     80% 0 mm
18:35 19.2 °C 15.9 °C 1013.4 hPa Calm     81% 0 mm
18:40 18.8 °C 15.7 °C 1013.4 hPa Calm     82% 0 mm
18:45 18.5 °C 15.6 °C 1013.4 hPa Calm     83% 0 mm
18:50 18.2 °C 15.2 °C 1013.4 hPa Calm     83% 0 mm
18:55 17.8 °C 15.1 °C 1013.4 hPa Calm     84% 0 mm
19:00 17.4 °C 14.9 °C 1013.4 hPa Calm     85% 0 mm
19:05 17.2 °C 14.6 °C 1013.4 hPa Calm     85% 0 mm
19:10 16.9 °C 14.6 °C 1013.4 hPa Calm     86% 0 mm
19:15 16.7 °C 14.5 °C 1013.4 hPa Calm     87% 0 mm
19:20 16.5 °C 14.3 °C 1013.8 hPa Calm     87% 0 mm
19:25 16.4 °C 14.4 °C 1013.8 hPa Calm     88% 0 mm
19:30 16.4 °C 14.6 °C 1013.8 hPa Calm     89% 0 mm
19:40 16.6 °C 14.9 °C 1013.8 hPa Calm     90% 0 mm
19:45 16.5 °C 14.8 °C 1013.8 hPa Calm   1.6 km/h 90% 0 mm
19:50 16.6 °C 14.9 °C 1013.8 hPa Calm   1.6 km/h 90% 0 mm
19:55 16.6 °C 14.9 °C 1013.8 hPa Calm   1.6 km/h 90% 0 mm
20:00 16.7 °C 15.2 °C 1013.8 hPa Calm   1.6 km/h 91% 0 mm
20:05 16.7 °C 15.1 °C 1013.8 hPa Calm     90% 0 mm
20:10 16.7 °C 15.1 °C 1013.8 hPa Calm   1.6 km/h 90% 0 mm
20:15 16.5 °C 14.7 °C 1013.8 hPa Calm   1.6 km/h 89% 0 mm
20:20 16.4 °C 14.8 °C 1013.8 hPa Calm   1.6 km/h 90% 0 mm
20:30 16.3 °C 14.7 °C 1013.8 hPa Calm     90% 0 mm
20:35 16.2 °C 14.6 °C 1013.8 hPa Calm     90% 0 mm
20:40 16.3 °C 14.8 °C 1014.1 hPa Calm     91% 0 mm
20:45 16.4 °C 14.9 °C 1014.1 hPa Calm     91% 0 mm
20:50 16.4 °C 14.9 °C 1013.8 hPa Calm   1.6 km/h 91% 0 mm
20:55 16.6 °C 15.3 °C 1014.1 hPa Calm   1.6 km/h 92% 0 mm
21:00 16.8 °C 15.4 °C 1014.1 hPa Calm   4.8 km/h 92% 0 mm
21:05 16.7 °C 15.1 °C 1014.1 hPa Calm   9.7 km/h 90% 0 mm
21:10 16.3 °C 14.3 °C 1014.1 hPa Calm   9.7 km/h 88% 0 mm
21:15 16.1 °C 14.3 °C 1014.4 hPa Calm     89% 0 mm
21:20 16 °C 14.2 °C 1014.4 hPa Calm   1.6 km/h 89% 0 mm
21:25 16.2 °C 14.7 °C 1014.1 hPa Calm   1.6 km/h 91% 0 mm
21:30 16.3 °C 14.9 °C 1014.1 hPa Calm   1.6 km/h 91% 0 mm
21:35 16.5 °C 15 °C 1014.1 hPa Calm     91% 0 mm
21:40 16.6 °C 15.1 °C 1014.1 hPa Calm     91% 0 mm
21:45 16.6 °C 15.1 °C 1014.1 hPa Calm     91% 0 mm
21:50 16.7 °C 15.2 °C 1014.1 hPa Calm   3.2 km/h 91% 0 mm
21:55 17.1 °C 15.6 °C 1014.1 hPa South 1.6 km/h 9.7 km/h 91% 0 mm
22:00 17.6 °C 16.1 °C 1014.4 hPa Calm   9.7 km/h 91% 0 mm
22:05 17.8 °C 15.9 °C 1014.1 hPa Calm   1.6 km/h 89% 0 mm
22:10 17.9 °C 15.9 °C 1014.4 hPa Calm   1.6 km/h 88% 0 mm
22:15 18 °C 16 °C 1014.4 hPa Calm   3.2 km/h 88% 0 mm
22:20 17.9 °C 15.7 °C 1014.4 hPa Calm   3.2 km/h 87% 0 mm
22:30 17.8 °C 15.7 °C 1014.4 hPa Calm   1.6 km/h 87% 0 mm
22:35 17.8 °C 15.6 °C 1014.4 hPa Calm   1.6 km/h 87% 0 mm
22:40 17.7 °C 15.7 °C 1014.4 hPa Calm   1.6 km/h 88% 0 mm
22:50 17.2 °C 15.2 °C 1014.4 hPa Calm     88% 0 mm
22:55 17.1 °C 15.1 °C 1014.4 hPa Calm     88% 0 mm
23:00 17 °C 15.2 °C 1014.4 hPa Calm     89% 0 mm
23:05 17.1 °C 15.4 °C 1014.4 hPa Calm     90% 0 mm
23:10 17.2 °C 15.5 °C 1014.4 hPa Calm     90% 0 mm
23:15 17.1 °C 15.4 °C 1014.4 hPa Calm     90% 0 mm
23:20 17.1 °C 15.4 °C 1014.4 hPa Calm     90% 0 mm
23:25 17.1 °C 15.4 °C 1014.4 hPa Calm   4.8 km/h 90% 0 mm
23:35 17.4 °C 15.9 °C 1014.4 hPa Calm   9.7 km/h 91% 0 mm
23:40 17.4 °C 15.8 °C 1014.4 hPa SSE 1.6 km/h 4.8 km/h 90% 0 mm
23:45 17.5 °C 15.8 °C 1014.4 hPa Calm   4.8 km/h 90% 0 mm
23:50 17.5 °C 15.8 °C 1014.4 hPa Calm   4.8 km/h 90% 0 mm
23:55 17.5 °C 15.7 °C 1014.4 hPa Calm   4.8 km/h 89% 0 mm
Westford Weather
Compliments of Weather Underground

 
 
Current Radar Loop:

Copyright © WestfordWeather.net 2007-2014. All rights reserved.